Time;durP1;ratioP1;P1;durP2;ratioP2;P2;SDS_P1;SDS_P2;PMS_P1;PMS_P2;Temp;Humidity;BMP_temperature;BMP_pressure;BME280_temperature;BME280_humidity;BME280_pressure;Samples;Min_cycle;Max_cycle;Signal;HPM_P1;HPM_P2
2023/04/02 00:03:00;;;;;;;;;;;6.00;99.90;;;;;;8245770;28;19909;-77
2023/04/02 00:07:29;;;;;;;;;;;6.00;99.90;;;;;;8259562;28;20008;-77
2023/04/02 00:11:37;;;;;;;;;;;6.00;99.90;;;;;;8259887;28;20544;-76
2023/04/02 00:15:39;;;;;;;;;;;6.10;99.90;;;;;;8256287;28;20263;-77
2023/04/02 00:19:49;;;;;;;;;;;6.20;99.90;;;;;;8255313;28;19917;-76
2023/04/02 00:23:52;;;;;;;;;;;6.20;99.90;;;;;;8249383;28;19910;-76
2023/04/02 00:27:53;;;;;;;;;;;6.10;99.90;;;;;;8259628;28;19905;-76
2023/04/02 00:31:54;;;;;;;;;;;6.10;99.90;;;;;;8252402;28;20338;-77
2023/04/02 00:35:54;;;;;;;;;;;6.20;99.90;;;;;;8259904;28;19912;-77
2023/04/02 00:40:00;;;;;;;;;;;6.00;99.90;;;;;;8259617;28;19906;-76
2023/04/02 00:44:01;;;;;;;;;;;5.80;99.90;;;;;;8247085;28;20016;-77
2023/04/02 00:48:14;;;;;;;;;;;5.60;99.90;;;;;;8236828;28;19910;-77
2023/04/02 00:52:17;;;;;;;;;;;5.60;99.90;;;;;;8242388;28;19905;-76
2023/04/02 00:56:32;;;;;;;;;;;5.40;99.90;;;;;;8258410;28;20374;-76
2023/04/02 01:00:33;;;;;;;;;;;5.30;99.90;;;;;;8259075;28;20005;-76
2023/04/02 01:04:35;;;;;;;;;;;5.20;99.90;;;;;;8259419;28;19909;-75
2023/04/02 01:08:54;;;;;;;;;;;5.20;99.90;;;;;;8254491;28;19956;-76
2023/04/02 01:13:10;;;;;;;;;;;5.20;99.90;;;;;;8251031;28;20390;-76
2023/04/02 01:17:31;;;;;;;;;;;5.30;99.90;;;;;;8261874;28;20362;-76
2023/04/02 01:21:44;;;;;;;;;;;5.20;99.90;;;;;;8253227;28;19909;-76
2023/04/02 01:26:02;;;;;;;;;;;5.10;99.90;;;;;;8255339;28;20354;-77
2023/04/02 01:30:06;;;;;;;;;;;5.20;99.90;;;;;;8262737;28;19914;-77
2023/04/02 01:34:08;;;;;;;;;;;5.30;99.90;;;;;;8254547;28;19909;-76
2023/04/02 01:38:12;;;;;;;;;;;5.40;99.90;;;;;;8265221;28;19949;-77
2023/04/02 01:42:32;;;;;;;;;;;5.60;99.90;;;;;;8256289;28;19921;-77
2023/04/02 01:46:33;;;;;;;;;;;5.50;99.90;;;;;;8258119;28;19906;-78
2023/04/02 01:50:38;;;;;;;;;;;5.70;99.90;;;;;;8262985;28;19906;-77
2023/04/02 01:54:39;;;;;;;;;;;5.70;99.90;;;;;;8249500;28;19909;-77
2023/04/02 01:58:40;;;;;;;;;;;5.60;99.90;;;;;;8259270;28;19913;-77
2023/04/02 02:02:41;;;;;;;;;;;5.50;99.90;;;;;;8262334;28;20291;-76
2023/04/02 02:06:42;;;;;;;;;;;5.30;99.90;;;;;;8253532;28;19968;-76
2023/04/02 02:10:42;;;;;;;;;;;5.20;99.90;;;;;;8261145;28;19959;-76
2023/04/02 02:14:50;;;;;;;;;;;5.10;99.90;;;;;;8257366;28;19952;-75
2023/04/02 02:18:53;;;;;;;;;;;5.10;99.90;;;;;;8254601;28;19916;-76
2023/04/02 02:22:55;;;;;;;;;;;5.20;99.90;;;;;;8255480;28;19913;-76
2023/04/02 02:27:02;;;;;;;;;;;5.30;99.90;;;;;;8259040;28;20012;-77
2023/04/02 02:31:05;;;;;;;;;;;5.40;99.90;;;;;;8245600;28;20008;-75
2023/04/02 02:35:06;;;;;;;;;;;5.40;99.90;;;;;;8254462;28;19910;-76
2023/04/02 02:39:13;;;;;;;;;;;5.50;99.90;;;;;;8258485;28;20426;-77
2023/04/02 02:43:15;;;;;;;;;;;5.50;99.90;;;;;;8257724;28;19960;-76
2023/04/02 02:47:27;;;;;;;;;;;5.40;99.90;;;;;;8261790;28;19905;-77
2023/04/02 02:51:36;;;;;;;;;;;5.50;99.90;;;;;;8244343;28;19913;-76
2023/04/02 02:55:37;;;;;;;;;;;5.50;99.90;;;;;;8249326;28;19917;-77
2023/04/02 02:59:37;;;;;;;;;;;5.40;99.90;;;;;;8252805;28;20366;-76
2023/04/02 03:03:38;;;;;;;;;;;5.40;99.90;;;;;;8261066;28;19917;-76
2023/04/02 03:07:39;;;;;;;;;;;5.40;99.90;;;;;;8254245;28;19927;-76
2023/04/02 03:11:46;;;;;;;;;;;5.40;99.90;;;;;;8261409;28;19906;-76
2023/04/02 03:15:55;;;;;;;;;;;5.30;99.90;;;;;;8261372;28;20402;-76
2023/04/02 03:20:11;;;;;;;;;;;5.10;99.90;;;;;;8255834;28;20382;-76
2023/04/02 03:24:18;;;;;;;;;;;5.10;99.90;;;;;;8253028;28;19920;-77
2023/04/02 03:28:21;;;;;;;;;;;4.80;99.90;;;;;;8255571;28;19906;-76
2023/04/02 03:32:24;;;;;;;;;;;4.80;99.90;;;;;;8246465;28;19914;-77
2023/04/02 03:36:27;;;;;;;;;;;4.70;99.90;;;;;;8260580;28;19992;-76
2023/04/02 03:40:32;;;;;;;;;;;5.10;99.90;;;;;;8245123;28;20399;-76
2023/04/02 03:44:45;;;;;;;;;;;5.00;99.90;;;;;;8258399;28;19921;-78
2023/04/02 03:48:48;;;;;;;;;;;5.10;99.90;;;;;;8248584;28;20446;-77
2023/04/02 03:52:49;;;;;;;;;;;4.90;99.90;;;;;;8259909;28;19906;-76
2023/04/02 03:56:51;;;;;;;;;;;5.00;99.90;;;;;;8256738;28;19926;-77
2023/04/02 04:00:58;;;;;;;;;;;5.10;99.90;;;;;;8256034;28;20432;-76
2023/04/02 04:04:59;;;;;;;;;;;5.00;99.90;;;;;;8259498;28;19910;-76
2023/04/02 04:09:09;;;;;;;;;;;5.10;99.90;;;;;;8246804;28;20009;-77
2023/04/02 04:13:15;;;;;;;;;;;5.30;99.90;;;;;;8254983;28;19936;-77
2023/04/02 04:17:23;;;;;;;;;;;5.40;99.90;;;;;;8255032;28;19913;-77
2023/04/02 04:21:36;;;;;;;;;;;5.20;99.90;;;;;;8248573;28;19958;-76
2023/04/02 04:25:36;;;;;;;;;;;5.00;99.90;;;;;;8259931;28;19976;-76
2023/04/02 04:29:55;;;;;;;;;;;4.90;99.90;;;;;;8259283;28;19910;-76
2023/04/02 04:34:03;;;;;;;;;;;4.80;99.90;;;;;;8256744;28;19970;-77
2023/04/02 04:38:26;;;;;;;;;;;4.90;99.90;;;;;;8228763;28;19917;-76
2023/04/02 04:42:29;;;;;;;;;;;4.90;99.90;;;;;;8227042;28;19921;-77
2023/04/02 04:46:33;;;;;;;;;;;4.90;99.90;;;;;;8231795;28;19916;-77
2023/04/02 04:50:46;;;;;;;;;;;4.90;99.90;;;;;;8229366;28;19910;-76
2023/04/02 04:54:47;;;;;;;;;;;4.90;99.90;;;;;;8234178;28;19917;-77
2023/04/02 04:58:50;;;;;;;;;;;5.10;99.90;;;;;;8251991;28;19909;-76
2023/04/02 05:03:00;;;;;;;;;;;5.30;99.90;;;;;;8237250;28;19914;-76
2023/04/02 05:07:08;;;;;;;;;;;5.40;99.90;;;;;;8247514;28;20013;-77
2023/04/02 05:11:12;;;;;;;;;;;5.20;99.90;;;;;;8246515;28;19913;-76
2023/04/02 05:15:12;;;;;;;;;;;5.30;99.90;;;;;;8248655;28;20388;-76
2023/04/02 05:19:19;;;;;;;;;;;5.40;99.90;;;;;;8238700;28;19913;-76
2023/04/02 05:23:33;;;;;;;;;;;5.50;99.90;;;;;;8224378;28;19929;-76
2023/04/02 05:27:51;;;;;;;;;;;5.60;99.90;;;;;;8239953;28;19906;-75
2023/04/02 05:31:59;;;;;;;;;;;5.70;99.90;;;;;;8247699;28;19948;-76
2023/04/02 05:36:08;;;;;;;;;;;5.90;99.90;;;;;;8257812;28;20003;-75
2023/04/02 05:40:30;;;;;;;;;;;6.10;99.90;;;;;;8240348;28;20390;-76
2023/04/02 05:44:32;;;;;;;;;;;6.10;99.90;;;;;;8246053;28;19964;-77
2023/04/02 05:48:36;;;;;;;;;;;6.30;99.90;;;;;;8257362;28;20361;-76
2023/04/02 05:52:42;;;;;;;;;;;6.40;99.90;;;;;;8239876;28;19918;-77
2023/04/02 05:56:46;;;;;;;;;;;6.60;99.90;;;;;;8256173;28;19920;-77
2023/04/02 06:00:50;;;;;;;;;;;6.80;99.90;;;;;;8260162;28;19917;-76
2023/04/02 06:05:00;;;;;;;;;;;6.90;99.90;;;;;;8247295;28;19910;-77
2023/04/02 06:09:07;;;;;;;;;;;7.00;99.90;;;;;;8244593;28;19910;-76
2023/04/02 06:13:10;;;;;;;;;;;7.30;99.90;;;;;;8252231;28;19916;-76
2023/04/02 06:17:13;;;;;;;;;;;7.30;99.90;;;;;;8248102;28;19925;-76
2023/04/02 06:21:16;;;;;;;;;;;7.30;99.90;;;;;;8254098;28;19976;-76
2023/04/02 06:25:23;;;;;;;;;;;7.50;99.90;;;;;;8240635;28;19905;-77
2023/04/02 06:29:38;;;;;;;;;;;7.70;99.90;;;;;;8256650;28;19906;-76
2023/04/02 06:33:38;;;;;;;;;;;7.70;99.90;;;;;;8258903;28;20463;-76
2023/04/02 06:37:41;;;;;;;;;;;7.80;99.90;;;;;;8259075;28;19910;-77
2023/04/02 06:41:42;;;;;;;;;;;7.80;99.90;;;;;;8235940;28;19914;-76
2023/04/02 06:45:45;;;;;;;;;;;8.00;99.90;;;;;;8242909;28;20449;-77
2023/04/02 06:49:45;;;;;;;;;;;8.00;99.90;;;;;;8248265;28;20363;-76
2023/04/02 06:53:47;;;;;;;;;;;8.40;99.90;;;;;;8243987;28;19917;-77
2023/04/02 06:57:47;;;;;;;;;;;8.40;99.90;;;;;;8254193;28;19913;-86
2023/04/02 07:01:53;;;;;;;;;;;8.50;99.90;;;;;;8244429;28;19940;-87
2023/04/02 07:05:54;;;;;;;;;;;8.60;99.90;;;;;;8250537;28;19916;-86
2023/04/02 07:09:55;;;;;;;;;;;8.70;99.90;;;;;;8248981;28;19912;-88
2023/04/02 07:13:55;;;;;;;;;;;8.60;99.90;;;;;;8244792;28;19909;-88
2023/04/02 07:17:57;;;;;;;;;;;8.80;99.90;;;;;;8261240;28;19910;-87
2023/04/02 07:21:58;;;;;;;;;;;8.80;99.90;;;;;;8241815;28;20374;-78
2023/04/02 07:26:00;;;;;;;;;;;8.90;99.90;;;;;;8252492;28;19918;-78
2023/04/02 07:30:01;;;;;;;;;;;8.70;99.90;;;;;;8242285;28;20587;-78
2023/04/02 07:34:04;;;;;;;;;;;9.00;99.90;;;;;;8250695;28;20491;-77
2023/04/02 07:38:05;;;;;;;;;;;9.00;99.90;;;;;;8243425;28;19932;-78
2023/04/02 07:42:06;;;;;;;;;;;9.10;99.90;;;;;;8256602;28;19916;-77
2023/04/02 07:46:07;;;;;;;;;;;9.40;99.90;;;;;;8255166;28;19913;-78
2023/04/02 07:50:08;;;;;;;;;;;9.40;99.90;;;;;;8249553;28;19916;-78
2023/04/02 07:54:09;;;;;;;;;;;9.40;99.90;;;;;;8249503;28;20381;-77
2023/04/02 07:58:09;;;;;;;;;;;9.70;99.90;;;;;;8244022;28;19918;-78
2023/04/02 08:02:20;;;;;;;;;;;9.80;99.90;;;;;;8241577;28;19928;-79
2023/04/02 08:06:21;;;;;;;;;;;9.80;99.90;;;;;;8235042;28;19909;-80
2023/04/02 08:10:21;;;;;;;;;;;9.80;99.90;;;;;;8252212;28;19925;-80
2023/04/02 08:14:22;;;;;;;;;;;10.30;99.90;;;;;;8237056;28;19910;-78
2023/04/02 08:18:22;;;;;;;;;;;10.50;99.90;;;;;;8242784;28;20445;-80
2023/04/02 08:22:23;;;;;;;;;;;10.70;99.90;;;;;;8251959;28;19921;-80
2023/04/02 08:26:23;;;;;;;;;;;11.10;99.90;;;;;;8251566;28;19952;-80
2023/04/02 08:30:24;;;;;;;;;;;11.60;99.90;;;;;;8239536;28;19909;-80
2023/04/02 08:34:24;;;;;;;;;;;11.70;99.90;;;;;;8254391;28;19914;-80
2023/04/02 08:38:25;;;;;;;;;;;12.30;99.90;;;;;;8245139;28;19906;-80
2023/04/02 08:42:29;;;;;;;;;;;12.40;99.90;;;;;;8258021;28;20263;-78
2023/04/02 08:46:34;;;;;;;;;;;12.70;99.90;;;;;;8244608;28;19917;-78
2023/04/02 08:50:35;;;;;;;;;;;12.80;99.90;;;;;;8251527;28;19905;-79
2023/04/02 08:54:42;;;;;;;;;;;12.80;99.90;;;;;;8251116;28;19959;-77
2023/04/02 08:58:43;;;;;;;;;;;13.10;99.90;;;;;;8251553;28;19913;-78
2023/04/02 09:02:51;;;;;;;;;;;13.20;99.90;;;;;;8244711;28;19917;-79
2023/04/02 09:06:53;;;;;;;;;;;13.40;99.90;;;;;;8253377;28;19906;-78
2023/04/02 09:11:08;;;;;;;;;;;13.40;99.90;;;;;;8256263;28;19905;-78
2023/04/02 09:15:29;;;;;;;;;;;13.50;99.90;;;;;;8238307;28;19914;-78
2023/04/02 09:19:32;;;;;;;;;;;13.70;99.90;;;;;;8248683;28;20465;-78
2023/04/02 09:23:32;;;;;;;;;;;13.30;99.90;;;;;;8256180;28;19936;-78
2023/04/02 09:27:34;;;;;;;;;;;13.10;99.90;;;;;;8253874;28;19910;-79
2023/04/02 09:31:37;;;;;;;;;;;12.90;99.90;;;;;;8256955;28;20028;-79
2023/04/02 09:35:50;;;;;;;;;;;12.80;99.90;;;;;;8260115;28;20609;-78
2023/04/02 09:39:50;;;;;;;;;;;13.00;99.90;;;;;;8252769;28;19924;-78
2023/04/02 09:44:09;;;;;;;;;;;13.30;99.90;;;;;;8259539;28;19909;-78
2023/04/02 09:48:24;;;;;;;;;;;13.40;99.90;;;;;;8248591;28;19909;-78
2023/04/02 09:52:28;;;;;;;;;;;13.60;99.90;;;;;;8251502;28;19906;-78
2023/04/02 09:56:35;;;;;;;;;;;13.90;99.90;;;;;;8244248;28;19917;-78
2023/04/02 10:00:36;;;;;;;;;;;14.30;99.90;;;;;;8246817;28;19910;-78
2023/04/02 10:04:44;;;;;;;;;;;14.50;99.90;;;;;;8258838;28;19963;-79
2023/04/02 10:08:45;;;;;;;;;;;14.00;99.90;;;;;;8239509;28;19910;-78
2023/04/02 10:12:57;;;;;;;;;;;12.60;99.90;;;;;;8258689;28;20286;-78
2023/04/02 10:17:14;;;;;;;;;;;11.50;99.90;;;;;;8248428;28;19964;-79
2023/04/02 10:21:17;;;;;;;;;;;11.20;99.90;;;;;;8252888;28;20032;-78
2023/04/02 10:25:19;;;;;;;;;;;11.60;99.90;;;;;;8231279;28;19910;-77
2023/04/02 10:29:28;;;;;;;;;;;12.40;99.90;;;;;;8249770;28;19917;-77
2023/04/02 10:33:50;;;;;;;;;;;12.80;99.90;;;;;;8256478;28;19963;-78
2023/04/02 10:37:50;;;;;;;;;;;12.30;99.90;;;;;;8239404;28;19911;-77
2023/04/02 10:42:00;;;;;;;;;;;12.40;99.90;;;;;;8239692;28;19947;-78
2023/04/02 10:46:27;;;;;;;;;;;13.20;99.90;;;;;;8235763;28;19909;-77
2023/04/02 10:50:29;;;;;;;;;;;13.90;99.90;;;;;;8238649;28;19991;-77
2023/04/02 10:54:50;;;;;;;;;;;14.10;99.90;;;;;;8248913;28;19992;-77
2023/04/02 10:58:53;;;;;;;;;;;14.20;99.90;;;;;;8243753;28;19917;-78
2023/04/02 11:03:12;;;;;;;;;;;14.10;99.90;;;;;;8235111;28;19910;-78
2023/04/02 11:07:16;;;;;;;;;;;14.10;99.90;;;;;;8232980;28;19910;-77
2023/04/02 11:11:29;;;;;;;;;;;14.20;99.90;;;;;;8233308;28;20401;-78
2023/04/02 11:15:30;;;;;;;;;;;14.20;99.90;;;;;;8235118;28;19909;-78
2023/04/02 11:19:31;;;;;;;;;;;14.80;99.90;;;;;;8245434;28;19952;-77
2023/04/02 11:23:33;;;;;;;;;;;15.90;99.90;;;;;;8245507;28;19953;-78
2023/04/02 11:27:34;;;;;;;;;;;16.90;99.90;;;;;;8251059;28;19909;-78
2023/04/02 11:31:35;;;;;;;;;;;18.00;99.90;;;;;;8249143;28;20437;-78
2023/04/02 11:35:37;;;;;;;;;;;19.10;99.90;;;;;;8246814;28;19910;-78
2023/04/02 11:39:55;;;;;;;;;;;18.90;99.90;;;;;;8257621;28;19910;-78
2023/04/02 11:43:59;;;;;;;;;;;18.20;99.90;;;;;;8243853;28;20608;-78
2023/04/02 11:47:59;;;;;;;;;;;17.20;99.90;;;;;;8255173;28;20330;-79
2023/04/02 11:52:00;;;;;;;;;;;16.60;99.90;;;;;;8258335;28;19910;-79
2023/04/02 11:56:20;;;;;;;;;;;16.10;99.90;;;;;;8251519;28;19940;-78
2023/04/02 12:00:25;;;;;;;;;;;15.70;99.90;;;;;;8245441;28;19996;-77
2023/04/02 12:04:33;;;;;;;;;;;14.70;99.90;;;;;;8247682;28;19972;-77
2023/04/02 12:08:46;;;;;;;;;;;13.30;99.90;;;;;;8241684;28;20367;-77
2023/04/02 12:12:47;;;;;;;;;;;12.20;99.90;;;;;;8255446;28;19917;-78
2023/04/02 12:16:48;;;;;;;;;;;11.90;99.90;;;;;;8235734;28;20252;-77
2023/04/02 12:20:55;;;;;;;;;;;12.00;99.90;;;;;;8252770;28;19906;-77
2023/04/02 12:24:58;;;;;;;;;;;12.50;99.90;;;;;;8245075;28;20374;-78
2023/04/02 12:29:17;;;;;;;;;;;13.00;99.90;;;;;;8229731;28;19909;-78
2023/04/02 12:33:18;;;;;;;;;;;13.70;99.90;;;;;;8251695;28;19917;-79
2023/04/02 12:37:20;;;;;;;;;;;14.00;99.90;;;;;;8231787;28;19957;-78
2023/04/02 12:41:23;;;;;;;;;;;14.30;99.90;;;;;;8249914;28;20005;-79
2023/04/02 12:45:26;;;;;;;;;;;14.10;99.90;;;;;;8230830;28;22390;-78
2023/04/02 12:49:34;;;;;;;;;;;13.90;99.90;;;;;;8224904;28;19917;-78
2023/04/02 12:53:35;;;;;;;;;;;14.20;99.90;;;;;;8235224;28;20314;-78
2023/04/02 12:57:37;;;;;;;;;;;14.50;99.90;;;;;;8230228;28;20429;-78
2023/04/02 13:01:53;;;;;;;;;;;15.10;99.90;;;;;;8249150;28;19914;-78
2023/04/02 13:05:55;;;;;;;;;;;15.90;99.90;;;;;;8251557;28;19996;-78
2023/04/02 13:09:59;;;;;;;;;;;17.10;99.90;;;;;;8253608;28;19979;-78
2023/04/02 13:14:01;;;;;;;;;;;16.40;99.90;;;;;;8251486;28;19910;-77
2023/04/02 13:18:18;;;;;;;;;;;15.20;99.90;;;;;;8252542;28;19910;-78
2023/04/02 13:22:30;;;;;;;;;;;14.00;99.90;;;;;;8250588;28;19956;-77
2023/04/02 13:26:31;;;;;;;;;;;13.20;99.90;;;;;;8246195;28;19906;-77
2023/04/02 13:30:32;;;;;;;;;;;12.10;99.90;;;;;;8254412;28;19906;-77
2023/04/02 13:34:32;;;;;;;;;;;11.50;99.90;;;;;;8246958;28;19996;-79
2023/04/02 13:38:33;;;;;;;;;;;11.30;99.90;;;;;;8252729;28;19910;-77
2023/04/02 13:42:33;;;;;;;;;;;11.50;99.90;;;;;;8252737;28;20000;-78
2023/04/02 13:46:34;;;;;;;;;;;11.90;99.90;;;;;;8246350;28;20359;-77
2023/04/02 13:50:34;;;;;;;;;;;12.20;99.90;;;;;;8251818;28;19933;-78
2023/04/02 13:54:43;;;;;;;;;;;12.50;99.90;;;;;;8251220;28;19945;-78
2023/04/02 13:58:47;;;;;;;;;;;12.80;99.90;;;;;;8260537;28;20397;-79
2023/04/02 14:02:50;;;;;;;;;;;13.60;99.90;;;;;;8260882;28;19914;-78
2023/04/02 14:06:57;;;;;;;;;;;14.50;99.90;;;;;;8248007;28;20370;-80
2023/04/02 14:11:08;;;;;;;;;;;16.00;99.90;;;;;;8253778;28;19914;-78
2023/04/02 14:15:27;;;;;;;;;;;14.10;99.90;;;;;;8250909;28;20012;-78
2023/04/02 14:19:45;;;;;;;;;;;12.30;99.90;;;;;;8251985;28;19905;-78
2023/04/02 14:23:52;;;;;;;;;;;10.80;99.90;;;;;;8246245;28;19909;-77
2023/04/02 14:27:53;;;;;;;;;;;9.80;99.90;;;;;;8252123;28;19905;-76
2023/04/02 14:32:02;;;;;;;;;;;9.20;99.90;;;;;;8240973;28;20000;-78
2023/04/02 14:36:12;;;;;;;;;;;8.80;99.90;;;;;;8251926;28;19906;-77
2023/04/02 14:40:18;;;;;;;;;;;8.60;99.90;;;;;;8254836;28;19913;-76
2023/04/02 14:44:21;;;;;;;;;;;8.70;99.90;;;;;;8257645;28;19924;-77
2023/04/02 14:48:21;;;;;;;;;;;9.00;99.90;;;;;;8244570;28;19918;-76
2023/04/02 14:52:22;;;;;;;;;;;9.10;99.90;;;;;;8251146;28;20282;-77
2023/04/02 14:56:23;;;;;;;;;;;9.50;99.90;;;;;;8243207;28;19920;-78
2023/04/02 15:00:26;;;;;;;;;;;9.80;99.90;;;;;;8253665;28;21112;-79
2023/04/02 15:04:31;;;;;;;;;;;10.00;99.90;;;;;;8260137;28;19910;-78
2023/04/02 15:08:35;;;;;;;;;;;10.50;99.90;;;;;;8245046;28;19921;-78
2023/04/02 15:12:38;;;;;;;;;;;10.80;99.90;;;;;;8248059;28;20430;-80
2023/04/02 15:16:38;;;;;;;;;;;11.10;99.90;;;;;;8255734;28;20459;-78
2023/04/02 15:20:44;;;;;;;;;;;11.60;99.90;;;;;;8259022;28;19919;-79
2023/04/02 15:24:57;;;;;;;;;;;11.90;99.90;;;;;;8247137;28;20494;-78
2023/04/02 15:29:07;;;;;;;;;;;11.80;99.90;;;;;;8246487;28;19909;-79
2023/04/02 15:33:30;;;;;;;;;;;11.70;99.90;;;;;;8246255;28;19906;-79
2023/04/02 15:37:33;;;;;;;;;;;11.90;99.90;;;;;;8243083;28;20306;-80
2023/04/02 15:41:38;;;;;;;;;;;12.30;99.90;;;;;;8243598;28;19914;-80
2023/04/02 15:45:38;;;;;;;;;;;12.90;99.90;;;;;;8242856;28;19953;-80
2023/04/02 15:50:05;;;;;;;;;;;13.30;99.90;;;;;;8251537;28;19921;-79
2023/04/02 15:54:25;;;;;;;;;;;12.30;99.90;;;;;;8253309;28;19957;-78
2023/04/02 15:58:37;;;;;;;;;;;10.90;99.90;;;;;;8257053;28;20293;-78
2023/04/02 16:02:57;;;;;;;;;;;10.10;99.90;;;;;;8258081;28;20366;-79
2023/04/02 16:07:16;;;;;;;;;;;9.60;99.90;;;;;;8245405;28;19913;-78
2023/04/02 16:11:16;;;;;;;;;;;8.90;99.90;;;;;;8251137;28;19909;-78
2023/04/02 16:15:26;;;;;;;;;;;8.00;99.90;;;;;;8259825;28;19917;-82
2023/04/02 16:19:30;;;;;;;;;;;7.60;99.90;;;;;;8258660;28;19977;-79
2023/04/02 16:23:32;;;;;;;;;;;7.50;99.90;;;;;;8263260;28;19953;-81
2023/04/02 16:27:36;;;;;;;;;;;7.40;99.90;;;;;;8253689;28;20452;-79
2023/04/02 16:31:42;;;;;;;;;;;7.30;99.90;;;;;;8262899;28;20280;-81
2023/04/02 16:35:52;;;;;;;;;;;7.20;99.90;;;;;;8251112;28;20437;-81
2023/04/02 16:40:05;;;;;;;;;;;7.20;99.90;;;;;;8262165;28;19906;-81
2023/04/02 16:44:06;;;;;;;;;;;7.30;99.90;;;;;;8238512;28;20504;-83
2023/04/02 16:48:17;;;;;;;;;;;7.50;99.90;;;;;;8245117;28;19933;-82
2023/04/02 16:52:35;;;;;;;;;;;7.30;99.90;;;;;;8259235;28;20370;-81
2023/04/02 16:56:36;;;;;;;;;;;7.30;99.90;;;;;;8247933;28;19996;-82
2023/04/02 17:00:51;;;;;;;;;;;7.20;99.90;;;;;;8249898;28;19915;-83
2023/04/02 17:04:54;;;;;;;;;;;7.20;99.90;;;;;;8256214;28;19975;-82
2023/04/02 17:09:04;;;;;;;;;;;7.20;99.90;;;;;;8250410;28;19945;-80
2023/04/02 17:13:13;;;;;;;;;;;7.30;99.90;;;;;;8259556;28;19917;-80
2023/04/02 17:17:15;;;;;;;;;;;7.30;99.90;;;;;;8250600;28;20395;-83
2023/04/02 17:21:21;;;;;;;;;;;7.30;99.90;;;;;;8264262;28;19933;-82
2023/04/02 17:25:30;;;;;;;;;;;7.40;99.90;;;;;;8260054;28;19945;-81
2023/04/02 17:29:37;;;;;;;;;;;7.40;99.90;;;;;;8249313;28;19917;-82
2023/04/02 17:33:37;;;;;;;;;;;7.30;99.90;;;;;;8250863;28;20379;-83
2023/04/02 17:37:41;;;;;;;;;;;7.20;99.90;;;;;;8251787;28;20000;-85
2023/04/02 17:41:58;;;;;;;;;;;7.00;99.90;;;;;;8244864;28;19920;-80
2023/04/02 17:46:25;;;;;;;;;;;6.90;99.90;;;;;;8243042;28;20401;-82
2023/04/02 17:50:35;;;;;;;;;;;6.80;99.90;;;;;;8256117;28;19912;-82
2023/04/02 17:54:42;;;;;;;;;;;6.80;99.90;;;;;;8251324;28;20033;-80
2023/04/02 17:58:51;;;;;;;;;;;6.60;99.90;;;;;;8254279;28;19930;-80
2023/04/02 18:03:11;;;;;;;;;;;6.60;99.90;;;;;;8255463;28;20039;-81
2023/04/02 18:07:38;;;;;;;;;;;6.70;99.90;;;;;;8251018;28;19917;-80
2023/04/02 18:11:38;;;;;;;;;;;6.60;99.90;;;;;;8258243;28;19906;-82
2023/04/02 18:15:47;;;;;;;;;;;6.50;99.90;;;;;;8252165;28;19921;-79
2023/04/02 18:20:15;;;;;;;;;;;6.50;99.90;;;;;;8245261;28;19909;-80
2023/04/02 18:24:27;;;;;;;;;;;6.40;99.90;;;;;;8246797;28;19920;-80
2023/04/02 18:28:37;;;;;;;;;;;6.40;99.90;;;;;;8259382;28;19948;-81
2023/04/02 18:32:56;;;;;;;;;;;6.40;99.90;;;;;;8254847;28;19921;-81
2023/04/02 18:37:15;;;;;;;;;;;6.40;99.90;;;;;;8246301;28;19910;-79
2023/04/02 18:41:37;;;;;;;;;;;6.30;99.90;;;;;;8248639;28;20794;-80
2023/04/02 18:45:49;;;;;;;;;;;6.20;99.90;;;;;;8216340;28;19914;-80
2023/04/02 18:50:04;;;;;;;;;;;6.30;99.90;;;;;;8244229;28;19932;-79
2023/04/02 18:54:07;;;;;;;;;;;6.20;99.90;;;;;;8257128;28;19910;-78
2023/04/02 18:58:14;;;;;;;;;;;6.10;99.90;;;;;;8248459;28;20397;-80
2023/04/02 19:02:26;;;;;;;;;;;6.10;99.90;;;;;;8260370;28;19921;-80
2023/04/02 19:06:31;;;;;;;;;;;6.10;99.90;;;;;;8254393;28;19910;-80
2023/04/02 19:10:33;;;;;;;;;;;6.10;99.90;;;;;;8254469;28;19916;-80
2023/04/02 19:14:33;;;;;;;;;;;6.10;99.90;;;;;;8259596;28;19916;-80
2023/04/02 19:18:34;;;;;;;;;;;6.10;99.90;;;;;;8245620;28;19910;-79
2023/04/02 19:22:47;;;;;;;;;;;6.00;99.90;;;;;;8258704;28;19918;-80
2023/04/02 19:26:52;;;;;;;;;;;5.90;99.90;;;;;;8253104;28;20298;-80
2023/04/02 19:31:11;;;;;;;;;;;5.80;99.90;;;;;;8243626;28;19917;-80
2023/04/02 19:35:11;;;;;;;;;;;5.60;99.90;;;;;;8253530;28;20552;-81
2023/04/02 19:39:26;;;;;;;;;;;5.30;99.90;;;;;;8249397;28;19977;-78
2023/04/02 19:43:27;;;;;;;;;;;5.20;99.90;;;;;;8253729;28;19910;-80
2023/04/02 19:47:28;;;;;;;;;;;5.20;99.90;;;;;;8250461;28;20409;-80
2023/04/02 19:51:29;;;;;;;;;;;5.20;99.90;;;;;;8244070;28;19916;-79
2023/04/02 19:55:29;;;;;;;;;;;5.10;99.90;;;;;;8246885;28;19964;-77
2023/04/02 19:59:30;;;;;;;;;;;5.00;99.90;;;;;;8254971;28;19917;-78
2023/04/02 20:03:31;;;;;;;;;;;4.90;99.90;;;;;;8262076;28;19967;-79
2023/04/02 20:07:31;;;;;;;;;;;4.70;99.90;;;;;;8258662;28;19910;-80
2023/04/02 20:11:32;;;;;;;;;;;4.70;99.90;;;;;;8244315;28;20001;-80
2023/04/02 20:15:34;;;;;;;;;;;4.60;99.90;;;;;;8256282;28;20461;-79
2023/04/02 20:19:34;;;;;;;;;;;4.50;99.90;;;;;;8247650;28;20263;-79
2023/04/02 20:23:35;;;;;;;;;;;4.50;99.90;;;;;;8261316;28;19910;-78
2023/04/02 20:27:35;;;;;;;;;;;4.40;99.90;;;;;;8251292;28;19906;-79
2023/04/02 20:31:36;;;;;;;;;;;4.30;99.90;;;;;;8258092;28;20383;-80
2023/04/02 20:35:36;;;;;;;;;;;4.30;99.90;;;;;;8251492;28;20374;-78
2023/04/02 20:39:37;;;;;;;;;;;4.30;99.90;;;;;;8253062;28;20278;-80
2023/04/02 20:43:39;;;;;;;;;;;4.30;99.90;;;;;;8259660;28;19933;-80
2023/04/02 20:47:40;;;;;;;;;;;4.30;99.90;;;;;;8257298;28;20000;-81
2023/04/02 20:51:40;;;;;;;;;;;4.20;99.90;;;;;;8260078;28;20389;-79
2023/04/02 20:55:41;;;;;;;;;;;4.30;99.90;;;;;;8242928;28;19918;-80
2023/04/02 20:59:42;;;;;;;;;;;4.30;99.90;;;;;;8247781;28;19910;-79
2023/04/02 21:03:42;;;;;;;;;;;4.20;99.90;;;;;;8248665;28;19948;-79
2023/04/02 21:07:43;;;;;;;;;;;4.20;99.90;;;;;;8238844;28;19924;-78
2023/04/02 21:11:43;;;;;;;;;;;4.20;99.90;;;;;;8258614;28;20374;-79
2023/04/02 21:15:44;;;;;;;;;;;4.20;99.90;;;;;;8257862;28;19956;-79
2023/04/02 21:19:44;;;;;;;;;;;4.00;99.90;;;;;;8238171;28;19918;-77
2023/04/02 21:23:45;;;;;;;;;;;4.00;99.90;;;;;;8249454;28;19917;-79
2023/04/02 21:27:45;;;;;;;;;;;3.90;99.90;;;;;;8255291;28;20336;-78
2023/04/02 21:31:46;;;;;;;;;;;3.90;99.90;;;;;;8260773;28;19909;-81
2023/04/02 21:35:46;;;;;;;;;;;3.80;99.90;;;;;;8264316;28;19905;-78
2023/04/02 21:39:47;;;;;;;;;;;3.80;99.90;;;;;;8265038;28;19912;-81
2023/04/02 21:43:48;;;;;;;;;;;3.60;99.90;;;;;;8248254;28;19916;-79
2023/04/02 21:47:48;;;;;;;;;;;3.70;99.90;;;;;;8262084;28;19906;-78
2023/04/02 21:51:50;;;;;;;;;;;3.70;99.90;;;;;;8249816;28;19914;-78
2023/04/02 21:55:58;;;;;;;;;;;3.60;99.90;;;;;;8256297;28;19914;-77
2023/04/02 21:59:59;;;;;;;;;;;3.60;99.90;;;;;;8257114;28;19905;-78
2023/04/02 22:04:00;;;;;;;;;;;3.50;99.90;;;;;;8262962;28;19917;-78
2023/04/02 22:08:01;;;;;;;;;;;3.40;99.90;;;;;;8259531;28;20290;-78
2023/04/02 22:12:01;;;;;;;;;;;3.40;99.90;;;;;;8263393;28;19913;-78
2023/04/02 22:16:02;;;;;;;;;;;;;;;;;;8260863;28;19917;-79
2023/04/02 22:20:03;;;;;;;;;;;3.30;99.90;;;;;;8262929;28;19964;-77
2023/04/02 22:24:05;;;;;;;;;;;3.20;99.90;;;;;;8263404;28;19946;-79
2023/04/02 22:28:06;;;;;;;;;;;3.20;99.90;;;;;;8248135;28;19906;-78
2023/04/02 22:32:06;;;;;;;;;;;3.20;99.90;;;;;;8262513;28;19905;-78
2023/04/02 22:36:07;;;;;;;;;;;3.10;99.90;;;;;;8261411;28;19906;-79
2023/04/02 22:40:08;;;;;;;;;;;3.10;99.90;;;;;;8251559;28;20382;-79
2023/04/02 22:44:12;;;;;;;;;;;3.10;99.90;;;;;;8262917;28;19977;-80
2023/04/02 22:48:12;;;;;;;;;;;3.10;99.90;;;;;;8253579;28;20009;-79
2023/04/02 22:52:13;;;;;;;;;;;2.90;99.90;;;;;;8263202;28;20362;-79
2023/04/02 22:56:17;;;;;;;;;;;3.00;99.90;;;;;;8260868;28;19960;-79
2023/04/02 23:00:19;;;;;;;;;;;3.00;99.90;;;;;;8263933;28;19905;-78
2023/04/02 23:04:19;;;;;;;;;;;2.90;99.90;;;;;;8251903;28;19916;-79
2023/04/02 23:08:20;;;;;;;;;;;2.90;99.90;;;;;;8261115;28;19910;-79
2023/04/02 23:12:20;;;;;;;;;;;2.80;99.90;;;;;;8252219;28;19952;-80
2023/04/02 23:16:21;;;;;;;;;;;2.70;99.90;;;;;;8261244;28;19927;-79
2023/04/02 23:20:21;;;;;;;;;;;2.70;99.90;;;;;;8259349;28;20498;-80
2023/04/02 23:24:22;;;;;;;;;;;2.60;99.90;;;;;;8249678;28;19916;-79
2023/04/02 23:28:22;;;;;;;;;;;2.60;99.90;;;;;;8261043;28;19905;-78
2023/04/02 23:32:23;;;;;;;;;;;2.60;99.90;;;;;;8253910;28;20338;-80
2023/04/02 23:36:28;;;;;;;;;;;2.50;99.90;;;;;;8260762;28;19929;-80
2023/04/02 23:40:28;;;;;;;;;;;2.40;99.90;;;;;;8251148;28;19988;-80
2023/04/02 23:44:28;;;;;;;;;;;2.40;99.90;;;;;;8257590;28;20496;-81
2023/04/02 23:48:29;;;;;;;;;;;2.50;99.90;;;;;;8260341;28;20525;-80
2023/04/02 23:52:30;;;;;;;;;;;2.50;99.90;;;;;;8261919;28;20409;-80
2023/04/02 23:56:30;;;;;;;;;;;2.50;99.90;;;;;;8259454;28;19922;-79
